sensor_id;sensor_type;location;lat;lon;timestamp;temperature;humidity
10344;DHT22;5217;43.960;10.954;2023-03-14T00:01:18;18.30;99.90
10344;DHT22;5217;43.960;10.954;2023-03-14T00:03:48;18.30;99.90
10344;DHT22;5217;43.960;10.954;2023-03-14T00:06:17;18.40;99.90
10344;DHT22;5217;43.960;10.954;2023-03-14T00:08:46;18.40;99.90
10344;DHT22;5217;43.960;10.954;2023-03-14T00:11:16;18.30;99.90
10344;DHT22;5217;43.960;10.954;2023-03-14T00:13:47;18.40;99.90
10344;DHT22;5217;43.960;10.954;2023-03-14T00:16:18;18.40;99.90
10344;DHT22;5217;43.960;10.954;2023-03-14T00:18:47;18.40;99.90
10344;DHT22;5217;43.960;10.954;2023-03-14T00:21:16;18.40;99.90
10344;DHT22;5217;43.960;10.954;2023-03-14T00:23:44;18.30;99.90
10344;DHT22;5217;43.960;10.954;2023-03-14T00:26:15;18.30;99.90
10344;DHT22;5217;43.960;10.954;2023-03-14T00:28:45;18.30;99.90
10344;DHT22;5217;43.960;10.954;2023-03-14T00:31:16;18.30;99.90
10344;DHT22;5217;43.960;10.954;2023-03-14T00:33:45;18.30;99.90
10344;DHT22;5217;43.960;10.954;2023-03-14T00:36:16;18.30;99.90
10344;DHT22;5217;43.960;10.954;2023-03-14T00:38:46;18.20;99.90
10344;DHT22;5217;43.960;10.954;2023-03-14T00:41:17;18.20;99.90
10344;DHT22;5217;43.960;10.954;2023-03-14T00:43:46;18.20;99.90
10344;DHT22;5217;43.960;10.954;2023-03-14T00:46:16;18.10;99.90
10344;DHT22;5217;43.960;10.954;2023-03-14T00:48:45;18.10;99.90
10344;DHT22;5217;43.960;10.954;2023-03-14T00:51:14;18.10;99.90
10344;DHT22;5217;43.960;10.954;2023-03-14T00:53:43;18.10;99.90
10344;DHT22;5217;43.960;10.954;2023-03-14T00:56:13;18.10;99.90
10344;DHT22;5217;43.960;10.954;2023-03-14T00:58:41;18.10;99.90
10344;DHT22;5217;43.960;10.954;2023-03-14T01:01:12;18.10;99.90
10344;DHT22;5217;43.960;10.954;2023-03-14T01:03:42;18.10;99.90
10344;DHT22;5217;43.960;10.954;2023-03-14T01:06:13;18.10;99.90
10344;DHT22;5217;43.960;10.954;2023-03-14T01:08:42;18.10;99.90
10344;DHT22;5217;43.960;10.954;2023-03-14T01:11:12;18.00;99.90
10344;DHT22;5217;43.960;10.954;2023-03-14T01:13:42;18.00;99.90
10344;DHT22;5217;43.960;10.954;2023-03-14T01:16:12;18.00;99.90
10344;DHT22;5217;43.960;10.954;2023-03-14T01:18:43;18.00;99.90
10344;DHT22;5217;43.960;10.954;2023-03-14T01:21:14;18.00;99.90
10344;DHT22;5217;43.960;10.954;2023-03-14T01:23:43;18.00;99.90
10344;DHT22;5217;43.960;10.954;2023-03-14T01:26:13;17.90;99.90
10344;DHT22;5217;43.960;10.954;2023-03-14T01:28:41;17.90;99.90
10344;DHT22;5217;43.960;10.954;2023-03-14T01:31:11;17.80;99.90
10344;DHT22;5217;43.960;10.954;2023-03-14T01:33:42;17.90;99.90
10344;DHT22;5217;43.960;10.954;2023-03-14T01:36:11;17.80;99.60
10344;DHT22;5217;43.960;10.954;2023-03-14T01:38:40;17.90;99.50
10344;DHT22;5217;43.960;10.954;2023-03-14T01:41:14;17.80;99.30
10344;DHT22;5217;43.960;10.954;2023-03-14T01:43:43;17.80;99.40
10344;DHT22;5217;43.960;10.954;2023-03-14T01:46:30;17.80;99.90
10344;DHT22;5217;43.960;10.954;2023-03-14T01:49:18;17.80;99.90
10344;DHT22;5217;43.960;10.954;2023-03-14T01:51:52;17.80;99.90
10344;DHT22;5217;43.960;10.954;2023-03-14T01:54:25;17.70;99.90
10344;DHT22;5217;43.960;10.954;2023-03-14T01:56:57;17.70;99.90
10344;DHT22;5217;43.960;10.954;2023-03-14T01:59:27;17.70;99.90
10344;DHT22;5217;43.960;10.954;2023-03-14T02:01:57;17.70;99.90
10344;DHT22;5217;43.960;10.954;2023-03-14T02:04:29;17.60;99.90
10344;DHT22;5217;43.960;10.954;2023-03-14T02:07:03;17.50;99.90
10344;DHT22;5217;43.960;10.954;2023-03-14T02:09:32;17.50;99.90
10344;DHT22;5217;43.960;10.954;2023-03-14T02:12:00;17.50;99.90
10344;DHT22;5217;43.960;10.954;2023-03-14T02:14:32;17.40;99.90
10344;DHT22;5217;43.960;10.954;2023-03-14T02:17:03;17.50;99.90
10344;DHT22;5217;43.960;10.954;2023-03-14T02:19:50;17.40;99.90
10344;DHT22;5217;43.960;10.954;2023-03-14T02:22:21;17.40;99.90
10344;DHT22;5217;43.960;10.954;2023-03-14T02:24:58;17.40;99.90
10344;DHT22;5217;43.960;10.954;2023-03-14T02:27:33;17.40;99.90
10344;DHT22;5217;43.960;10.954;2023-03-14T02:30:05;17.40;99.90
10344;DHT22;5217;43.960;10.954;2023-03-14T02:32:36;17.40;99.90
10344;DHT22;5217;43.960;10.954;2023-03-14T02:35:08;17.40;99.90
10344;DHT22;5217;43.960;10.954;2023-03-14T02:37:41;17.30;99.90
10344;DHT22;5217;43.960;10.954;2023-03-14T02:40:11;17.30;99.90
10344;DHT22;5217;43.960;10.954;2023-03-14T02:42:41;17.40;99.90
10344;DHT22;5217;43.960;10.954;2023-03-14T02:45:40;17.30;99.90
10344;DHT22;5217;43.960;10.954;2023-03-14T02:48:15;17.30;99.90
10344;DHT22;5217;43.960;10.954;2023-03-14T02:50:45;17.30;99.90
10344;DHT22;5217;43.960;10.954;2023-03-14T02:53:17;17.30;99.90
10344;DHT22;5217;43.960;10.954;2023-03-14T02:55:47;17.30;99.90
10344;DHT22;5217;43.960;10.954;2023-03-14T02:58:19;17.30;99.90
10344;DHT22;5217;43.960;10.954;2023-03-14T03:00:48;17.30;99.90
10344;DHT22;5217;43.960;10.954;2023-03-14T03:03:16;17.30;99.90
10344;DHT22;5217;43.960;10.954;2023-03-14T03:05:48;17.30;99.90
10344;DHT22;5217;43.960;10.954;2023-03-14T03:08:17;17.30;99.90
10344;DHT22;5217;43.960;10.954;2023-03-14T03:10:46;17.30;99.90
10344;DHT22;5217;43.960;10.954;2023-03-14T03:13:17;17.30;99.90
10344;DHT22;5217;43.960;10.954;2023-03-14T03:15:46;17.30;99.90
10344;DHT22;5217;43.960;10.954;2023-03-14T03:18:14;17.20;99.90
10344;DHT22;5217;43.960;10.954;2023-03-14T03:20:43;17.20;99.90
10344;DHT22;5217;43.960;10.954;2023-03-14T03:23:11;17.20;99.90
10344;DHT22;5217;43.960;10.954;2023-03-14T03:25:40;17.20;99.90
10344;DHT22;5217;43.960;10.954;2023-03-14T03:28:08;17.20;99.90
10344;DHT22;5217;43.960;10.954;2023-03-14T03:30:41;17.20;99.90
10344;DHT22;5217;43.960;10.954;2023-03-14T03:33:10;17.20;99.90
10344;DHT22;5217;43.960;10.954;2023-03-14T03:35:43;17.20;99.90
10344;DHT22;5217;43.960;10.954;2023-03-14T03:38:12;17.20;99.90
10344;DHT22;5217;43.960;10.954;2023-03-14T03:40:41;17.20;99.90
10344;DHT22;5217;43.960;10.954;2023-03-14T03:43:10;17.20;99.90
10344;DHT22;5217;43.960;10.954;2023-03-14T03:45:40;17.20;99.90
10344;DHT22;5217;43.960;10.954;2023-03-14T03:48:10;17.20;99.90
10344;DHT22;5217;43.960;10.954;2023-03-14T03:50:44;17.10;99.90
10344;DHT22;5217;43.960;10.954;2023-03-14T03:53:13;17.20;99.90
10344;DHT22;5217;43.960;10.954;2023-03-14T03:55:58;17.10;99.90
10344;DHT22;5217;43.960;10.954;2023-03-14T03:58:28;17.10;99.90
10344;DHT22;5217;43.960;10.954;2023-03-14T04:00:58;17.20;99.90
10344;DHT22;5217;43.960;10.954;2023-03-14T04:03:27;17.10;99.90
10344;DHT22;5217;43.960;10.954;2023-03-14T04:05:59;17.10;99.90
10344;DHT22;5217;43.960;10.954;2023-03-14T04:08:29;17.20;99.90
10344;DHT22;5217;43.960;10.954;2023-03-14T04:10:59;17.10;99.90
10344;DHT22;5217;43.960;10.954;2023-03-14T04:13:28;17.10;99.90
10344;DHT22;5217;43.960;10.954;2023-03-14T04:15:58;17.10;99.90
10344;DHT22;5217;43.960;10.954;2023-03-14T04:18:26;17.10;99.90
10344;DHT22;5217;43.960;10.954;2023-03-14T04:20:57;17.10;99.90
10344;DHT22;5217;43.960;10.954;2023-03-14T04:23:26;17.10;99.90
10344;DHT22;5217;43.960;10.954;2023-03-14T04:25:55;17.10;99.90
10344;DHT22;5217;43.960;10.954;2023-03-14T04:28:23;17.10;99.90
10344;DHT22;5217;43.960;10.954;2023-03-14T04:30:51;17.10;99.90
10344;DHT22;5217;43.960;10.954;2023-03-14T04:33:21;17.10;99.90
10344;DHT22;5217;43.960;10.954;2023-03-14T04:35:53;17.10;99.90
10344;DHT22;5217;43.960;10.954;2023-03-14T04:38:22;17.10;99.90
10344;DHT22;5217;43.960;10.954;2023-03-14T04:40:50;17.10;99.90
10344;DHT22;5217;43.960;10.954;2023-03-14T04:43:19;17.10;99.90
10344;DHT22;5217;43.960;10.954;2023-03-14T04:45:47;17.10;99.90
10344;DHT22;5217;43.960;10.954;2023-03-14T04:48:16;17.10;99.90
10344;DHT22;5217;43.960;10.954;2023-03-14T04:50:48;17.00;99.90
10344;DHT22;5217;43.960;10.954;2023-03-14T04:53:17;17.00;99.90
10344;DHT22;5217;43.960;10.954;2023-03-14T04:55:50;17.00;99.90
10344;DHT22;5217;43.960;10.954;2023-03-14T04:58:19;17.00;99.90
10344;DHT22;5217;43.960;10.954;2023-03-14T05:00:48;17.00;99.90
10344;DHT22;5217;43.960;10.954;2023-03-14T05:03:17;17.00;99.90
10344;DHT22;5217;43.960;10.954;2023-03-14T05:05:47;17.00;99.90
10344;DHT22;5217;43.960;10.954;2023-03-14T05:08:16;17.00;99.90
10344;DHT22;5217;43.960;10.954;2023-03-14T05:10:44;17.00;99.90
10344;DHT22;5217;43.960;10.954;2023-03-14T05:13:12;17.00;99.90
10344;DHT22;5217;43.960;10.954;2023-03-14T05:15:41;17.00;99.90
10344;DHT22;5217;43.960;10.954;2023-03-14T05:18:13;17.00;99.90
10344;DHT22;5217;43.960;10.954;2023-03-14T05:20:41;17.00;99.90
10344;DHT22;5217;43.960;10.954;2023-03-14T05:23:12;17.00;99.90
10344;DHT22;5217;43.960;10.954;2023-03-14T05:25:42;17.00;99.90
10344;DHT22;5217;43.960;10.954;2023-03-14T05:28:11;17.00;99.90
10344;DHT22;5217;43.960;10.954;2023-03-14T05:30:39;17.00;99.90
10344;DHT22;5217;43.960;10.954;2023-03-14T05:33:08;16.90;99.90
10344;DHT22;5217;43.960;10.954;2023-03-14T05:35:37;17.00;99.90
10344;DHT22;5217;43.960;10.954;2023-03-14T05:38:06;17.00;99.90
10344;DHT22;5217;43.960;10.954;2023-03-14T05:40:36;17.00;99.90
10344;DHT22;5217;43.960;10.954;2023-03-14T05:43:04;17.00;99.90
10344;DHT22;5217;43.960;10.954;2023-03-14T05:45:35;17.00;99.90
10344;DHT22;5217;43.960;10.954;2023-03-14T05:48:04;17.00;99.90
10344;DHT22;5217;43.960;10.954;2023-03-14T05:50:32;17.00;99.90
10344;DHT22;5217;43.960;10.954;2023-03-14T05:53:01;17.00;99.90
10344;DHT22;5217;43.960;10.954;2023-03-14T05:55:30;17.00;99.90
10344;DHT22;5217;43.960;10.954;2023-03-14T05:57:59;17.00;99.90
10344;DHT22;5217;43.960;10.954;2023-03-14T06:00:28;17.00;99.90
10344;DHT22;5217;43.960;10.954;2023-03-14T06:02:56;17.00;99.90
10344;DHT22;5217;43.960;10.954;2023-03-14T06:05:25;17.00;99.90
10344;DHT22;5217;43.960;10.954;2023-03-14T06:07:53;17.00;99.90
10344;DHT22;5217;43.960;10.954;2023-03-14T06:10:21;17.00;99.90
10344;DHT22;5217;43.960;10.954;2023-03-14T06:12:50;17.00;99.90
10344;DHT22;5217;43.960;10.954;2023-03-14T06:15:23;17.00;99.90
10344;DHT22;5217;43.960;10.954;2023-03-14T06:17:54;17.00;99.90
10344;DHT22;5217;43.960;10.954;2023-03-14T06:20:22;17.00;99.90
10344;DHT22;5217;43.960;10.954;2023-03-14T06:22:51;17.00;99.90
10344;DHT22;5217;43.960;10.954;2023-03-14T06:25:19;17.00;99.90
10344;DHT22;5217;43.960;10.954;2023-03-14T06:27:48;17.00;99.90
10344;DHT22;5217;43.960;10.954;2023-03-14T06:30:16;17.00;99.90
10344;DHT22;5217;43.960;10.954;2023-03-14T06:32:47;17.00;99.90
10344;DHT22;5217;43.960;10.954;2023-03-14T06:35:16;17.00;99.90
10344;DHT22;5217;43.960;10.954;2023-03-14T06:37:44;17.00;99.90
10344;DHT22;5217;43.960;10.954;2023-03-14T06:40:13;17.00;99.90
10344;DHT22;5217;43.960;10.954;2023-03-14T06:42:45;17.00;99.90
10344;DHT22;5217;43.960;10.954;2023-03-14T06:45:14;17.10;99.90
10344;DHT22;5217;43.960;10.954;2023-03-14T06:47:42;17.10;99.90
10344;DHT22;5217;43.960;10.954;2023-03-14T06:50:13;17.00;99.90
10344;DHT22;5217;43.960;10.954;2023-03-14T06:52:41;17.00;99.90
10344;DHT22;5217;43.960;10.954;2023-03-14T06:55:15;17.00;99.90
10344;DHT22;5217;43.960;10.954;2023-03-14T06:57:46;17.00;99.90
10344;DHT22;5217;43.960;10.954;2023-03-14T07:00:15;17.00;99.90
10344;DHT22;5217;43.960;10.954;2023-03-14T07:02:44;17.00;99.90
10344;DHT22;5217;43.960;10.954;2023-03-14T07:05:14;17.00;99.90
10344;DHT22;5217;43.960;10.954;2023-03-14T07:07:43;17.00;99.90
10344;DHT22;5217;43.960;10.954;2023-03-14T07:10:11;17.00;99.90
10344;DHT22;5217;43.960;10.954;2023-03-14T07:12:40;16.90;99.90
10344;DHT22;5217;43.960;10.954;2023-03-14T07:15:09;17.00;99.90
10344;DHT22;5217;43.960;10.954;2023-03-14T07:17:45;16.90;99.90
10344;DHT22;5217;43.960;10.954;2023-03-14T07:20:16;16.90;99.90
10344;DHT22;5217;43.960;10.954;2023-03-14T07:22:47;16.90;99.90
10344;DHT22;5217;43.960;10.954;2023-03-14T07:25:16;17.00;99.90
10344;DHT22;5217;43.960;10.954;2023-03-14T07:27:45;16.90;99.90
10344;DHT22;5217;43.960;10.954;2023-03-14T07:30:15;17.00;99.90
10344;DHT22;5217;43.960;10.954;2023-03-14T07:32:43;17.00;99.90
10344;DHT22;5217;43.960;10.954;2023-03-14T07:35:11;17.00;99.90
10344;DHT22;5217;43.960;10.954;2023-03-14T07:37:41;16.90;99.90
10344;DHT22;5217;43.960;10.954;2023-03-14T07:40:11;16.90;99.90
10344;DHT22;5217;43.960;10.954;2023-03-14T07:42:42;17.00;99.90
10344;DHT22;5217;43.960;10.954;2023-03-14T07:45:11;17.00;99.90
10344;DHT22;5217;43.960;10.954;2023-03-14T07:47:39;16.90;99.90
10344;DHT22;5217;43.960;10.954;2023-03-14T07:50:09;16.90;99.90
10344;DHT22;5217;43.960;10.954;2023-03-14T07:52:38;17.00;99.90
10344;DHT22;5217;43.960;10.954;2023-03-14T07:55:08;17.00;99.90
10344;DHT22;5217;43.960;10.954;2023-03-14T07:57:37;17.00;99.90
10344;DHT22;5217;43.960;10.954;2023-03-14T08:00:07;17.00;99.90
10344;DHT22;5217;43.960;10.954;2023-03-14T08:02:35;17.00;99.90
10344;DHT22;5217;43.960;10.954;2023-03-14T08:05:05;17.00;99.90
10344;DHT22;5217;43.960;10.954;2023-03-14T08:07:33;17.00;99.90
10344;DHT22;5217;43.960;10.954;2023-03-14T08:10:03;17.00;99.90
10344;DHT22;5217;43.960;10.954;2023-03-14T08:12:33;17.00;99.90
10344;DHT22;5217;43.960;10.954;2023-03-14T08:15:02;17.00;99.90
10344;DHT22;5217;43.960;10.954;2023-03-14T08:17:30;17.00;99.90
10344;DHT22;5217;43.960;10.954;2023-03-14T08:19:58;17.00;99.90
10344;DHT22;5217;43.960;10.954;2023-03-14T08:22:27;17.00;99.90
10344;DHT22;5217;43.960;10.954;2023-03-14T08:24:55;17.00;99.90
10344;DHT22;5217;43.960;10.954;2023-03-14T08:27:24;17.00;99.90
10344;DHT22;5217;43.960;10.954;2023-03-14T08:29:54;16.90;99.90
10344;DHT22;5217;43.960;10.954;2023-03-14T08:32:22;17.00;99.90
10344;DHT22;5217;43.960;10.954;2023-03-14T08:34:51;16.90;99.90
10344;DHT22;5217;43.960;10.954;2023-03-14T08:37:19;17.00;99.90
10344;DHT22;5217;43.960;10.954;2023-03-14T08:39:53;17.00;99.90
10344;DHT22;5217;43.960;10.954;2023-03-14T08:42:22;17.00;99.90
10344;DHT22;5217;43.960;10.954;2023-03-14T08:44:50;17.00;99.90
10344;DHT22;5217;43.960;10.954;2023-03-14T08:47:21;16.90;99.90
10344;DHT22;5217;43.960;10.954;2023-03-14T08:49:49;16.90;99.90
10344;DHT22;5217;43.960;10.954;2023-03-14T08:52:18;16.90;99.90
10344;DHT22;5217;43.960;10.954;2023-03-14T08:54:46;16.90;99.90
10344;DHT22;5217;43.960;10.954;2023-03-14T08:57:15;16.80;99.90
10344;DHT22;5217;43.960;10.954;2023-03-14T08:59:43;16.80;99.90
10344;DHT22;5217;43.960;10.954;2023-03-14T09:02:12;16.80;99.90
10344;DHT22;5217;43.960;10.954;2023-03-14T09:04:42;16.80;99.90
10344;DHT22;5217;43.960;10.954;2023-03-14T09:07:10;16.80;99.90
10344;DHT22;5217;43.960;10.954;2023-03-14T09:09:38;16.80;99.90
10344;DHT22;5217;43.960;10.954;2023-03-14T09:12:07;16.80;99.90
10344;DHT22;5217;43.960;10.954;2023-03-14T09:14:35;16.80;99.90
10344;DHT22;5217;43.960;10.954;2023-03-14T09:17:04;16.80;99.90
10344;DHT22;5217;43.960;10.954;2023-03-14T09:19:33;16.80;99.90
10344;DHT22;5217;43.960;10.954;2023-03-14T09:22:03;16.80;99.90
10344;DHT22;5217;43.960;10.954;2023-03-14T09:24:31;16.80;99.90
10344;DHT22;5217;43.960;10.954;2023-03-14T09:27:00;16.80;99.90
10344;DHT22;5217;43.960;10.954;2023-03-14T09:29:28;16.80;99.90
10344;DHT22;5217;43.960;10.954;2023-03-14T09:31:58;16.80;99.90
10344;DHT22;5217;43.960;10.954;2023-03-14T09:34:26;16.80;99.90
10344;DHT22;5217;43.960;10.954;2023-03-14T09:36:55;16.70;99.90
10344;DHT22;5217;43.960;10.954;2023-03-14T09:39:25;16.70;99.90
10344;DHT22;5217;43.960;10.954;2023-03-14T09:41:55;16.70;99.90
10344;DHT22;5217;43.960;10.954;2023-03-14T09:44:27;16.70;99.90
10344;DHT22;5217;43.960;10.954;2023-03-14T09:47:00;16.70;99.90
10344;DHT22;5217;43.960;10.954;2023-03-14T09:49:31;16.70;99.90
10344;DHT22;5217;43.960;10.954;2023-03-14T09:52:02;16.70;99.90
10344;DHT22;5217;43.960;10.954;2023-03-14T09:54:36;16.70;99.90
10344;DHT22;5217;43.960;10.954;2023-03-14T09:57:08;16.70;99.90
10344;DHT22;5217;43.960;10.954;2023-03-14T09:59:39;16.70;99.90
10344;DHT22;5217;43.960;10.954;2023-03-14T10:02:16;16.70;99.90
10344;DHT22;5217;43.960;10.954;2023-03-14T10:04:46;16.70;99.90
10344;DHT22;5217;43.960;10.954;2023-03-14T10:07:16;16.70;99.90
10344;DHT22;5217;43.960;10.954;2023-03-14T10:09:49;16.70;99.90
10344;DHT22;5217;43.960;10.954;2023-03-14T10:12:19;16.70;99.90
10344;DHT22;5217;43.960;10.954;2023-03-14T10:14:49;16.70;99.90
10344;DHT22;5217;43.960;10.954;2023-03-14T10:17:19;16.70;99.90
10344;DHT22;5217;43.960;10.954;2023-03-14T10:19:52;16.70;99.90
10344;DHT22;5217;43.960;10.954;2023-03-14T10:22:21;16.70;99.90
10344;DHT22;5217;43.960;10.954;2023-03-14T10:24:54;16.70;99.90
10344;DHT22;5217;43.960;10.954;2023-03-14T10:27:29;16.70;99.90
10344;DHT22;5217;43.960;10.954;2023-03-14T10:29:59;16.70;99.90
10344;DHT22;5217;43.960;10.954;2023-03-14T10:32:32;16.70;99.90
10344;DHT22;5217;43.960;10.954;2023-03-14T10:35:19;16.70;99.90
10344;DHT22;5217;43.960;10.954;2023-03-14T10:37:51;16.70;99.90
10344;DHT22;5217;43.960;10.954;2023-03-14T10:40:26;16.70;99.90
10344;DHT22;5217;43.960;10.954;2023-03-14T10:42:57;16.80;99.90
10344;DHT22;5217;43.960;10.954;2023-03-14T10:45:32;16.70;99.90
10344;DHT22;5217;43.960;10.954;2023-03-14T10:48:17;16.80;99.90
10344;DHT22;5217;43.960;10.954;2023-03-14T10:50:54;16.80;99.90
10344;DHT22;5217;43.960;10.954;2023-03-14T10:53:24;16.80;99.90
10344;DHT22;5217;43.960;10.954;2023-03-14T10:55:56;16.90;99.90
10344;DHT22;5217;43.960;10.954;2023-03-14T10:58:27;16.90;99.90
10344;DHT22;5217;43.960;10.954;2023-03-14T11:01:07;16.80;99.90
10344;DHT22;5217;43.960;10.954;2023-03-14T11:03:47;16.80;99.90
10344;DHT22;5217;43.960;10.954;2023-03-14T11:06:22;16.80;99.90
10344;DHT22;5217;43.960;10.954;2023-03-14T11:08:57;16.70;99.90
10344;DHT22;5217;43.960;10.954;2023-03-14T11:11:34;16.70;99.90
10344;DHT22;5217;43.960;10.954;2023-03-14T11:14:12;16.70;99.90
10344;DHT22;5217;43.960;10.954;2023-03-14T11:16:53;16.70;99.90
10344;DHT22;5217;43.960;10.954;2023-03-14T11:19:35;16.70;99.90
10344;DHT22;5217;43.960;10.954;2023-03-14T11:22:14;16.70;99.90
10344;DHT22;5217;43.960;10.954;2023-03-14T11:25:05;16.70;99.90
10344;DHT22;5217;43.960;10.954;2023-03-14T11:27:42;16.70;99.90
10344;DHT22;5217;43.960;10.954;2023-03-14T11:30:19;16.70;99.90
10344;DHT22;5217;43.960;10.954;2023-03-14T11:32:59;16.70;99.90
10344;DHT22;5217;43.960;10.954;2023-03-14T11:35:34;16.80;99.90
10344;DHT22;5217;43.960;10.954;2023-03-14T11:38:25;16.80;99.90
10344;DHT22;5217;43.960;10.954;2023-03-14T11:40:58;16.80;99.90
10344;DHT22;5217;43.960;10.954;2023-03-14T11:43:32;16.80;99.90
10344;DHT22;5217;43.960;10.954;2023-03-14T11:46:05;17.00;99.90
10344;DHT22;5217;43.960;10.954;2023-03-14T11:48:56;17.20;99.90
10344;DHT22;5217;43.960;10.954;2023-03-14T11:51:46;17.50;99.90
10344;DHT22;5217;43.960;10.954;2023-03-14T11:54:18;17.80;99.90
10344;DHT22;5217;43.960;10.954;2023-03-14T11:56:52;18.00;99.90
10344;DHT22;5217;43.960;10.954;2023-03-14T11:59:28;18.10;99.90
10344;DHT22;5217;43.960;10.954;2023-03-14T12:02:02;18.30;99.90
10344;DHT22;5217;43.960;10.954;2023-03-14T12:04:42;18.50;99.90
10344;DHT22;5217;43.960;10.954;2023-03-14T12:07:18;18.70;99.90
10344;DHT22;5217;43.960;10.954;2023-03-14T12:09:49;18.80;99.90
10344;DHT22;5217;43.960;10.954;2023-03-14T12:12:21;19.20;99.90
10344;DHT22;5217;43.960;10.954;2023-03-14T12:14:56;19.30;99.90
10344;DHT22;5217;43.960;10.954;2023-03-14T12:17:33;19.20;99.90
10344;DHT22;5217;43.960;10.954;2023-03-14T12:20:05;19.10;99.90
10344;DHT22;5217;43.960;10.954;2023-03-14T12:22:43;19.20;99.90
10344;DHT22;5217;43.960;10.954;2023-03-14T12:25:20;19.50;99.90
10344;DHT22;5217;43.960;10.954;2023-03-14T12:28:16;19.70;99.90
10344;DHT22;5217;43.960;10.954;2023-03-14T12:30:48;20.00;99.90
10344;DHT22;5217;43.960;10.954;2023-03-14T12:33:31;20.20;98.80
10344;DHT22;5217;43.960;10.954;2023-03-14T12:36:18;20.50;98.20
10344;DHT22;5217;43.960;10.954;2023-03-14T12:39:00;20.50;97.70
10344;DHT22;5217;43.960;10.954;2023-03-14T12:41:40;20.40;97.30
10344;DHT22;5217;43.960;10.954;2023-03-14T12:44:45;20.30;97.30
10344;DHT22;5217;43.960;10.954;2023-03-14T12:47:44;20.20;96.90
10344;DHT22;5217;43.960;10.954;2023-03-14T12:50:20;20.20;96.50
10344;DHT22;5217;43.960;10.954;2023-03-14T12:56:00;20.50;96.80
10344;DHT22;5217;43.960;10.954;2023-03-14T12:58:34;21.00;97.10
10344;DHT22;5217;43.960;10.954;2023-03-14T13:01:05;21.60;96.40
10344;DHT22;5217;43.960;10.954;2023-03-14T13:03:46;22.00;94.40
10344;DHT22;5217;43.960;10.954;2023-03-14T13:06:46;22.40;93.90
10344;DHT22;5217;43.960;10.954;2023-03-14T13:12:29;22.50;92.90
10344;DHT22;5217;43.960;10.954;2023-03-14T13:15:13;22.80;92.90
10344;DHT22;5217;43.960;10.954;2023-03-14T13:17:45;22.80;92.00
10344;DHT22;5217;43.960;10.954;2023-03-14T13:20:20;22.50;92.10
10344;DHT22;5217;43.960;10.954;2023-03-14T13:22:50;22.40;92.20
10344;DHT22;5217;43.960;10.954;2023-03-14T13:25:19;22.20;92.00
10344;DHT22;5217;43.960;10.954;2023-03-14T13:27:52;22.10;92.30
10344;DHT22;5217;43.960;10.954;2023-03-14T13:30:24;22.30;92.10
10344;DHT22;5217;43.960;10.954;2023-03-14T13:32:55;22.50;92.50
10344;DHT22;5217;43.960;10.954;2023-03-14T13:35:28;22.70;92.60
10344;DHT22;5217;43.960;10.954;2023-03-14T13:37:58;22.70;91.80
10344;DHT22;5217;43.960;10.954;2023-03-14T13:40:43;22.50;91.70
10344;DHT22;5217;43.960;10.954;2023-03-14T13:43:16;22.30;91.90
10344;DHT22;5217;43.960;10.954;2023-03-14T13:45:49;22.20;92.10
10344;DHT22;5217;43.960;10.954;2023-03-14T13:48:19;21.90;91.20
10344;DHT22;5217;43.960;10.954;2023-03-14T13:50:54;21.70;91.40
10344;DHT22;5217;43.960;10.954;2023-03-14T13:53:23;21.50;91.40
10344;DHT22;5217;43.960;10.954;2023-03-14T13:55:52;21.50;91.90
10344;DHT22;5217;43.960;10.954;2023-03-14T13:58:26;21.50;92.10
10344;DHT22;5217;43.960;10.954;2023-03-14T14:01:01;21.50;92.20
10344;DHT22;5217;43.960;10.954;2023-03-14T14:03:32;21.40;92.30
10344;DHT22;5217;43.960;10.954;2023-03-14T14:06:04;21.40;92.50
10344;DHT22;5217;43.960;10.954;2023-03-14T14:08:34;21.50;92.00
10344;DHT22;5217;43.960;10.954;2023-03-14T14:11:04;21.40;91.90
10344;DHT22;5217;43.960;10.954;2023-03-14T14:13:34;21.30;92.20
10344;DHT22;5217;43.960;10.954;2023-03-14T14:16:04;21.20;92.50
10344;DHT22;5217;43.960;10.954;2023-03-14T14:18:33;21.10;92.70
10344;DHT22;5217;43.960;10.954;2023-03-14T14:21:05;20.90;92.70
10344;DHT22;5217;43.960;10.954;2023-03-14T14:23:36;20.80;92.80
10344;DHT22;5217;43.960;10.954;2023-03-14T14:26:06;20.70;92.90
10344;DHT22;5217;43.960;10.954;2023-03-14T14:28:36;20.60;93.00
10344;DHT22;5217;43.960;10.954;2023-03-14T14:31:18;20.50;93.00
10344;DHT22;5217;43.960;10.954;2023-03-14T14:33:54;20.40;93.20
10344;DHT22;5217;43.960;10.954;2023-03-14T14:36:28;20.30;93.20
10344;DHT22;5217;43.960;10.954;2023-03-14T14:38:59;20.20;93.30
10344;DHT22;5217;43.960;10.954;2023-03-14T14:41:33;20.10;93.50
10344;DHT22;5217;43.960;10.954;2023-03-14T14:44:03;20.00;93.60
10344;DHT22;5217;43.960;10.954;2023-03-14T14:46:35;19.90;93.90
10344;DHT22;5217;43.960;10.954;2023-03-14T14:49:08;19.90;94.10
10344;DHT22;5217;43.960;10.954;2023-03-14T14:51:42;19.90;94.40
10344;DHT22;5217;43.960;10.954;2023-03-14T14:54:15;19.80;94.90
10344;DHT22;5217;43.960;10.954;2023-03-14T14:56:49;19.70;94.80
10344;DHT22;5217;43.960;10.954;2023-03-14T14:59:24;19.70;94.90
10344;DHT22;5217;43.960;10.954;2023-03-14T15:01:58;19.60;95.20
10344;DHT22;5217;43.960;10.954;2023-03-14T15:04:27;19.60;95.50
10344;DHT22;5217;43.960;10.954;2023-03-14T15:06:59;19.50;95.90
10344;DHT22;5217;43.960;10.954;2023-03-14T15:09:27;19.50;96.20
10344;DHT22;5217;43.960;10.954;2023-03-14T15:11:56;19.50;96.50
10344;DHT22;5217;43.960;10.954;2023-03-14T15:14:24;19.40;96.60
10344;DHT22;5217;43.960;10.954;2023-03-14T15:16:53;19.30;96.50
10344;DHT22;5217;43.960;10.954;2023-03-14T15:19:24;19.30;96.80
10344;DHT22;5217;43.960;10.954;2023-03-14T15:21:53;19.20;97.00
10344;DHT22;5217;43.960;10.954;2023-03-14T15:24:23;19.20;97.00
10344;DHT22;5217;43.960;10.954;2023-03-14T15:26:52;19.10;97.10
10344;DHT22;5217;43.960;10.954;2023-03-14T15:29:20;19.10;97.40
10344;DHT22;5217;43.960;10.954;2023-03-14T15:31:49;19.00;97.60
10344;DHT22;5217;43.960;10.954;2023-03-14T15:34:17;19.00;97.80
10344;DHT22;5217;43.960;10.954;2023-03-14T15:36:46;18.90;98.00
10344;DHT22;5217;43.960;10.954;2023-03-14T15:39:17;18.90;98.10
10344;DHT22;5217;43.960;10.954;2023-03-14T15:41:46;18.90;98.60
10344;DHT22;5217;43.960;10.954;2023-03-14T15:44:15;18.80;98.70
10344;DHT22;5217;43.960;10.954;2023-03-14T15:46:44;18.80;99.00
10344;DHT22;5217;43.960;10.954;2023-03-14T15:49:12;18.80;99.20
10344;DHT22;5217;43.960;10.954;2023-03-14T15:51:41;18.80;99.00
10344;DHT22;5217;43.960;10.954;2023-03-14T15:54:09;18.80;98.80
10344;DHT22;5217;43.960;10.954;2023-03-14T15:56:38;18.70;98.80
10344;DHT22;5217;43.960;10.954;2023-03-14T15:59:08;18.70;98.70
10344;DHT22;5217;43.960;10.954;2023-03-14T16:01:36;18.70;98.80
10344;DHT22;5217;43.960;10.954;2023-03-14T16:04:05;18.70;98.90